createdAt,value
2018-05-16T00:01:14.247Z,100582.52
2018-05-16T00:03:46.803Z,100573.52
2018-05-16T00:06:19.334Z,100583.91
2018-05-16T00:08:51.834Z,100578.75
2018-05-16T00:11:24.356Z,100581.05
2018-05-16T00:13:56.859Z,100576.95
2018-05-16T00:16:29.379Z,100573.20
2018-05-16T00:19:01.903Z,100574.63
2018-05-16T00:21:34.448Z,100575.16
2018-05-16T00:24:07.030Z,100578.10
2018-05-16T00:26:39.587Z,100578.69
2018-05-16T00:29:12.094Z,100577.13
2018-05-16T00:31:44.622Z,100581.53
2018-05-16T00:34:17.128Z,100589.06
2018-05-16T00:36:49.673Z,100584.06
2018-05-16T00:39:22.184Z,100584.30
2018-05-16T00:41:54.707Z,100583.32
2018-05-16T00:44:27.215Z,100588.20
2018-05-16T00:46:59.733Z,100592.59
2018-05-16T00:49:32.249Z,100582.47
2018-05-16T00:52:04.849Z,100584.71
2018-05-16T00:54:37.442Z,100589.17
2018-05-16T00:57:09.988Z,100583.20
2018-05-16T00:59:42.506Z,100578.20
2018-05-16T01:02:15.046Z,100582.50
2018-05-16T01:04:47.564Z,100589.50
2018-05-16T01:07:20.111Z,100575.25
2018-05-16T01:09:52.654Z,100578.33
2018-05-16T01:12:25.193Z,100582.63
2018-05-16T01:14:57.696Z,100584.74
2018-05-16T01:17:30.231Z,100586.56
2018-05-16T01:20:02.749Z,100584.73
2018-05-16T01:22:36.752Z,100579.72
2018-05-16T01:25:09.288Z,100591.00
2018-05-16T01:27:41.837Z,100594.49
2018-05-16T01:30:14.367Z,100585.31
2018-05-16T01:32:46.907Z,100585.55
2018-05-16T01:35:19.422Z,100582.71
2018-05-16T01:37:51.988Z,100576.86
2018-05-16T01:40:24.515Z,100585.92
2018-05-16T01:42:57.066Z,100578.73
2018-05-16T01:45:29.621Z,100568.06
2018-05-16T01:48:02.165Z,100568.60
2018-05-16T01:50:34.692Z,100570.03
2018-05-16T01:53:07.341Z,100562.03
2018-05-16T01:55:40.091Z,100562.51
2018-05-16T01:58:12.640Z,100555.36
2018-05-16T02:00:45.162Z,100557.25
2018-05-16T02:03:17.690Z,100561.59
2018-05-16T02:05:50.204Z,100556.95
2018-05-16T02:08:22.732Z,100559.20
2018-05-16T02:10:55.276Z,100564.38
2018-05-16T02:13:27.796Z,100566.63
2018-05-16T02:16:00.311Z,100559.95
2018-05-16T02:18:32.836Z,100557.94
2018-05-16T02:21:06.771Z,100558.47
2018-05-16T02:23:39.535Z,100561.02
2018-05-16T02:26:12.092Z,100564.98
2018-05-16T02:28:44.632Z,100565.89
2018-05-16T02:31:17.154Z,100565.89
2018-05-16T02:33:49.697Z,100575.33
2018-05-16T02:36:22.210Z,100575.90
2018-05-16T02:38:55.495Z,100577.38
2018-05-16T02:41:28.009Z,100578.74
2018-05-16T02:44:00.563Z,100580.59
2018-05-16T02:46:33.090Z,100579.78
2018-05-16T02:49:05.650Z,100575.55
2018-05-16T02:51:38.193Z,100577.32
2018-05-16T02:54:10.745Z,100573.14
2018-05-16T02:56:43.323Z,100572.36
2018-05-16T02:59:15.853Z,100575.78
2018-05-16T03:01:48.389Z,100573.30
2018-05-16T03:04:20.907Z,100566.98
2018-05-16T03:06:53.445Z,100568.31
2018-05-16T03:09:25.981Z,100561.60
2018-05-16T03:11:58.518Z,100569.69
2018-05-16T03:14:31.504Z,100571.86
2018-05-16T03:17:04.032Z,100566.77
2018-05-16T03:19:36.862Z,100565.92
2018-05-16T03:22:09.390Z,100570.59
2018-05-16T03:24:41.897Z,100564.28
2018-05-16T03:27:14.447Z,100558.77
2018-05-16T03:29:46.963Z,100567.33
2018-05-16T03:32:19.480Z,100561.84
2018-05-16T03:34:51.992Z,100563.17
2018-05-16T03:37:24.516Z,100566.98
2018-05-16T03:39:57.036Z,100559.75
2018-05-16T03:42:29.581Z,100556.41
2018-05-16T03:45:02.074Z,100552.59
2018-05-16T03:47:34.614Z,100558.08
2018-05-16T03:50:07.593Z,100562.41
2018-05-16T03:52:40.130Z,100567.50
2018-05-16T03:55:12.707Z,100555.08
2018-05-16T04:01:04.219Z,100565.52
2018-05-16T04:03:48.676Z,100575.52
2018-05-16T04:06:21.181Z,100570.78
2018-05-16T04:08:53.719Z,100568.55
2018-05-16T04:11:26.232Z,100569.36
2018-05-16T04:13:58.756Z,100573.45
2018-05-16T04:16:31.258Z,100581.48
2018-05-16T04:19:03.786Z,100585.16
2018-05-16T04:21:37.690Z,100589.81
2018-05-16T04:24:10.231Z,100591.05
2018-05-16T04:26:42.776Z,100583.39
2018-05-16T04:29:15.320Z,100576.44
2018-05-16T04:31:47.869Z,100573.34
2018-05-16T04:34:20.417Z,100595.80
2018-05-16T04:36:52.928Z,100595.09
2018-05-16T04:39:25.481Z,100591.28
2018-05-16T04:41:58.025Z,100579.58
2018-05-16T04:44:30.571Z,100585.87
2018-05-16T04:47:03.100Z,100577.56
2018-05-16T04:49:35.761Z,100573.22
2018-05-16T04:52:08.298Z,100572.33
2018-05-16T04:54:40.902Z,100572.30
2018-05-16T04:57:13.449Z,100575.06
2018-05-16T04:59:45.997Z,100573.63
2018-05-16T05:02:18.531Z,100580.17
2018-05-16T05:04:51.081Z,100586.74
2018-05-16T05:07:23.596Z,100580.52
2018-05-16T05:09:56.156Z,100574.60
2018-05-16T05:12:28.685Z,100571.83
2018-05-16T05:15:01.225Z,100573.33
2018-05-16T05:17:33.743Z,100577.38
2018-05-16T05:20:06.949Z,100586.03
2018-05-16T05:22:39.501Z,100584.83
2018-05-16T05:25:12.037Z,100588.20
2018-05-16T05:27:44.627Z,100585.39
2018-05-16T05:30:17.235Z,100586.03
2018-05-16T05:32:49.746Z,100575.50
2018-05-16T05:35:22.290Z,100572.78
2018-05-16T05:37:54.828Z,100580.19
2018-05-16T05:40:27.343Z,100586.37
2018-05-16T05:42:59.887Z,100588.92
2018-05-16T05:45:32.399Z,100581.53
2018-05-16T05:48:06.225Z,100575.98
2018-05-16T05:50:38.808Z,100580.53
2018-05-16T05:53:11.367Z,100582.91
2018-05-16T05:55:43.939Z,100586.50
2018-05-16T05:58:16.510Z,100577.82
2018-05-16T06:00:49.051Z,100588.26
2018-05-16T06:03:21.620Z,100592.97
2018-05-16T06:05:54.151Z,100591.34
2018-05-16T06:08:26.693Z,100592.94
2018-05-16T06:10:59.233Z,100590.55
2018-05-16T06:13:31.800Z,100595.69
2018-05-16T06:16:04.386Z,100606.66
2018-05-16T06:18:36.945Z,100606.48
2018-05-16T06:21:09.462Z,100603.90
2018-05-16T06:23:42.023Z,100604.12
2018-05-16T06:26:14.536Z,100602.92
2018-05-16T06:28:47.089Z,100603.63
2018-05-16T06:31:19.605Z,100601.19
2018-05-16T06:33:52.162Z,100606.77
2018-05-16T06:36:24.682Z,100609.27
2018-05-16T06:38:57.220Z,100611.66
2018-05-16T06:41:29.768Z,100609.39
2018-05-16T06:44:02.297Z,100610.20
2018-05-16T06:46:35.002Z,100607.26
2018-05-16T06:49:07.559Z,100610.33
2018-05-16T06:51:40.097Z,100612.58
2018-05-16T06:54:12.665Z,100618.89
2018-05-16T06:56:45.191Z,100616.30
2018-05-16T06:59:17.756Z,100616.37
2018-05-16T07:01:50.279Z,100614.46
2018-05-16T07:04:22.832Z,100609.80
2018-05-16T07:06:55.344Z,100611.96
2018-05-16T07:09:27.894Z,100609.80
2018-05-16T07:12:00.408Z,100613.54
2018-05-16T07:14:32.941Z,100609.94
2018-05-16T07:17:05.676Z,100619.58
2018-05-16T07:19:38.668Z,100617.41
2018-05-16T07:22:11.560Z,100616.13
2018-05-16T07:24:44.812Z,100617.84
2018-05-16T07:27:17.333Z,100623.84
2018-05-16T07:29:49.880Z,100618.26
2018-05-16T07:32:22.463Z,100618.73
2018-05-16T07:34:54.977Z,100627.77
2018-05-16T07:37:27.489Z,100625.22
2018-05-16T07:40:00.064Z,100619.04
2018-05-16T07:42:32.583Z,100625.14
2018-05-16T07:45:06.415Z,100623.00
2018-05-16T07:47:39.804Z,100620.45
2018-05-16T07:50:12.360Z,100621.52
2018-05-16T07:52:44.896Z,100617.52
2018-05-16T07:55:17.505Z,100620.63
2018-05-16T07:57:50.107Z,100622.81
2018-05-16T08:00:22.621Z,100625.41
2018-05-16T08:02:55.152Z,100629.77
2018-05-16T08:05:27.692Z,100626.47
2018-05-16T08:08:00.218Z,100619.03
2018-05-16T08:10:32.767Z,100617.47
2018-05-16T08:13:05.486Z,100618.02
2018-05-16T08:15:38.053Z,100610.92
2018-05-16T08:18:10.599Z,100611.37
2018-05-16T08:20:43.180Z,100615.51
2018-05-16T08:23:15.703Z,100610.09
2018-05-16T08:25:48.261Z,100605.80
2018-05-16T08:28:20.795Z,100602.63
2018-05-16T08:30:53.327Z,100615.52
2018-05-16T08:33:25.829Z,100615.63
2018-05-16T08:35:58.355Z,100614.88
2018-05-16T08:38:30.879Z,100611.39
2018-05-16T08:41:03.409Z,100609.95
2018-05-16T08:43:37.074Z,100613.56
2018-05-16T08:46:09.638Z,100604.07
2018-05-16T08:48:42.172Z,100597.68
2018-05-16T08:51:14.710Z,100589.42
2018-05-16T08:53:47.317Z,100589.52
2018-05-16T08:56:19.823Z,100585.34
2018-05-16T08:58:52.354Z,100591.11
2018-05-16T09:01:24.859Z,100587.62
2018-05-16T09:03:57.382Z,100582.78
2018-05-16T09:06:29.900Z,100587.75
2018-05-16T09:09:02.439Z,100588.28
2018-05-16T09:11:35.778Z,100590.94
2018-05-16T09:14:08.318Z,100589.19
2018-05-16T09:16:40.877Z,100597.57
2018-05-16T09:19:13.419Z,100601.70
2018-05-16T09:21:45.966Z,100606.09
2018-05-16T09:24:18.490Z,100601.70
2018-05-16T09:26:51.016Z,100600.55
2018-05-16T09:29:23.541Z,100598.27
2018-05-16T09:31:56.045Z,100597.72
2018-05-16T09:34:28.568Z,100596.08
2018-05-16T09:37:01.087Z,100604.47
2018-05-16T09:39:33.607Z,100602.80
2018-05-16T09:42:06.757Z,100594.82
2018-05-16T09:44:39.297Z,100594.41
2018-05-16T09:47:11.866Z,100590.81
2018-05-16T09:49:44.412Z,100591.06
2018-05-16T09:52:16.924Z,100588.95
2018-05-16T09:54:49.465Z,100592.08
2018-05-16T09:57:21.971Z,100592.33
2018-05-16T09:59:54.496Z,100595.98
2018-05-16T10:02:27.002Z,100592.19
2018-05-16T10:04:59.545Z,100594.89
2018-05-16T10:07:32.047Z,100592.45
2018-05-16T10:10:04.632Z,100595.50
2018-05-16T10:12:37.207Z,100599.87
2018-05-16T10:15:09.825Z,100602.70
2018-05-16T10:17:42.585Z,100615.57
2018-05-16T10:20:15.162Z,100611.16
2018-05-16T10:22:47.631Z,100603.64
2018-05-16T10:25:20.149Z,100599.33
2018-05-16T10:27:52.657Z,100595.64
2018-05-16T10:30:25.199Z,100594.88
2018-05-16T10:32:57.703Z,100592.80
2018-05-16T10:35:30.237Z,100588.95
2018-05-16T10:38:02.741Z,100584.75
2018-05-16T10:40:35.671Z,100582.33
2018-05-16T10:43:08.297Z,100572.33
2018-05-16T10:45:40.843Z,100574.64
2018-05-16T10:48:13.367Z,100571.23
2018-05-16T10:50:45.910Z,100583.33
2018-05-16T10:53:18.421Z,100582.53
2018-05-16T10:55:50.947Z,100586.93
2018-05-16T10:58:23.443Z,100586.45
2018-05-16T11:00:55.969Z,100584.17
2018-05-16T11:03:28.591Z,100588.39
2018-05-16T11:06:01.039Z,100587.50
2018-05-16T11:08:33.540Z,100582.02
2018-05-16T11:11:06.465Z,100584.94
2018-05-16T11:13:38.997Z,100585.06
2018-05-16T11:16:11.525Z,100575.52
2018-05-16T11:18:44.096Z,100575.17
2018-05-16T11:21:16.634Z,100571.63
2018-05-16T11:23:49.183Z,100566.19
2018-05-16T11:26:21.731Z,100570.28
2018-05-16T11:28:54.243Z,100566.41
2018-05-16T11:31:26.769Z,100567.38
2018-05-16T11:33:59.291Z,100560.59
2018-05-16T11:36:31.823Z,100562.69
2018-05-16T11:39:04.334Z,100565.79
2018-05-16T11:41:37.095Z,100570.33
2018-05-16T11:44:09.740Z,100570.65
2018-05-16T11:46:42.255Z,100565.63
2018-05-16T11:49:14.811Z,100562.45
2018-05-16T11:51:47.361Z,100564.64
2018-05-16T11:54:19.876Z,100564.33
2018-05-16T11:56:52.404Z,100571.83
2018-05-16T11:59:24.900Z,100565.91
2018-05-16T12:01:57.421Z,100565.41
2018-05-16T12:04:29.947Z,100557.53
2018-05-16T12:07:02.462Z,100558.81
2018-05-16T12:09:35.058Z,100560.88
2018-05-16T12:12:07.836Z,100560.81
2018-05-16T12:14:40.416Z,100565.04
2018-05-16T12:17:13.033Z,100551.38
2018-05-16T12:19:45.559Z,100554.06
2018-05-16T12:22:18.085Z,100547.42
2018-05-16T12:24:50.601Z,100555.70
2018-05-16T12:27:23.125Z,100552.90
2018-05-16T12:29:55.649Z,100543.98
2018-05-16T12:32:28.178Z,100546.36
2018-05-16T12:35:00.703Z,100554.70
2018-05-16T12:37:33.218Z,100552.58
2018-05-16T12:40:05.817Z,100556.48
2018-05-16T12:45:42.996Z,100554.61
2018-05-16T12:48:15.585Z,100553.17
2018-05-16T12:50:48.111Z,100544.97
2018-05-16T12:53:20.620Z,100547.90
2018-05-16T12:55:53.145Z,100536.97
2018-05-16T12:58:25.684Z,100537.60
2018-05-16T13:00:58.209Z,100534.73
2018-05-16T13:03:30.713Z,100528.20
2018-05-16T13:06:03.229Z,100530.83
2018-05-16T13:08:36.341Z,100532.68
2018-05-16T13:11:08.890Z,100536.22
2018-05-16T13:13:41.543Z,100543.28
2018-05-16T13:16:14.676Z,100542.49
2018-05-16T13:18:47.443Z,100554.72
2018-05-16T13:21:19.968Z,100541.11
2018-05-16T13:23:52.487Z,100543.73
2018-05-16T13:26:25.009Z,100557.59
2018-05-16T13:28:57.523Z,100551.63
2018-05-16T13:31:30.041Z,100552.63
2018-05-16T13:34:02.560Z,100550.11
2018-05-16T13:36:35.141Z,100551.56
2018-05-16T13:39:07.653Z,100544.39
2018-05-16T13:41:40.340Z,100542.32
2018-05-16T13:44:13.075Z,100544.02
2018-05-16T13:46:45.600Z,100534.28
2018-05-16T13:49:18.212Z,100539.97
2018-05-16T13:51:50.731Z,100543.40
2018-05-16T13:54:23.241Z,100530.64
2018-05-16T13:56:55.765Z,100528.20
2018-05-16T13:59:28.260Z,100526.75
2018-05-16T14:02:00.786Z,100525.07
2018-05-16T14:04:33.285Z,100528.02
2018-05-16T14:07:06.053Z,100529.63
2018-05-16T14:09:38.563Z,100534.17
2018-05-16T14:12:11.096Z,100530.96
2018-05-16T14:14:43.606Z,100537.05
2018-05-16T14:17:16.163Z,100538.01
2018-05-16T14:19:48.668Z,100532.68
2018-05-16T14:22:21.182Z,100530.92
2018-05-16T14:24:53.691Z,100527.22
2018-05-16T14:27:26.209Z,100533.44
2018-05-16T14:29:58.727Z,100522.88
2018-05-16T14:32:31.246Z,100520.76
2018-05-16T14:35:03.748Z,100525.14
2018-05-16T14:37:36.292Z,100521.45
2018-05-16T14:40:09.105Z,100525.61
2018-05-16T14:42:41.773Z,100527.39
2018-05-16T14:45:14.225Z,100519.64
2018-05-16T14:47:46.793Z,100513.92
2018-05-16T14:50:19.346Z,100514.67
2018-05-16T14:52:51.874Z,100516.80
2018-05-16T14:55:24.415Z,100512.44
2018-05-16T14:57:56.944Z,100513.20
2018-05-16T15:00:29.461Z,100503.20
2018-05-16T15:03:01.988Z,100500.44
2018-05-16T15:05:34.501Z,100505.35
2018-05-16T15:08:07.301Z,100501.20
2018-05-16T15:10:39.821Z,100495.38
2018-05-16T15:13:12.358Z,100491.81
2018-05-16T15:15:44.894Z,100496.23
2018-05-16T15:18:17.429Z,100490.36
2018-05-16T15:20:49.967Z,100491.28
2018-05-16T15:23:22.467Z,100488.28
2018-05-16T15:25:54.991Z,100486.51
2018-05-16T15:28:27.507Z,100482.73
2018-05-16T15:31:00.041Z,100478.26
2018-05-16T15:33:32.547Z,100477.59
2018-05-16T15:36:05.360Z,100474.84
2018-05-16T15:38:38.207Z,100478.56
2018-05-16T15:41:10.756Z,100480.86
2018-05-16T15:43:43.273Z,100484.27
2018-05-16T15:46:15.831Z,100483.27
2018-05-16T15:48:48.322Z,100473.55
2018-05-16T15:51:20.840Z,100474.45
2018-05-16T15:53:53.343Z,100467.71
2018-05-16T15:56:25.881Z,100469.73
2018-05-16T15:58:58.618Z,100463.94
2018-05-16T16:01:31.144Z,100460.42
2018-05-16T16:04:03.647Z,100461.80
2018-05-16T16:06:36.316Z,100457.27
2018-05-16T16:09:09.106Z,100458.73
2018-05-16T16:11:41.786Z,100459.19
2018-05-16T16:14:14.316Z,100457.55
2018-05-16T16:16:46.866Z,100461.16
2018-05-16T16:19:19.369Z,100468.00
2018-05-16T16:21:51.906Z,100463.66
2018-05-16T16:24:24.526Z,100463.62
2018-05-16T16:26:57.051Z,100459.22
2018-05-16T16:29:29.551Z,100450.91
2018-05-16T16:32:02.084Z,100454.48
2018-05-16T16:34:34.603Z,100454.53
2018-05-16T16:37:08.014Z,100450.56
2018-05-16T16:39:40.523Z,100449.23
2018-05-16T16:42:13.420Z,100449.16
2018-05-16T16:44:46.132Z,100441.98
2018-05-16T16:47:18.619Z,100442.70
2018-05-16T16:49:51.131Z,100448.66
2018-05-16T16:52:23.656Z,100443.73
2018-05-16T16:54:56.172Z,100447.84
2018-05-16T16:57:28.691Z,100453.64
2018-05-16T17:00:01.290Z,100448.34
2018-05-16T17:02:33.745Z,100445.56
2018-05-16T17:05:06.394Z,100453.55
2018-05-16T17:07:39.003Z,100454.21
2018-05-16T17:10:11.765Z,100442.77
2018-05-16T17:12:44.366Z,100447.11
2018-05-16T17:15:16.931Z,100449.54
2018-05-16T17:17:49.467Z,100454.28
2018-05-16T17:20:22.019Z,100456.44
2018-05-16T17:22:54.523Z,100453.34
2018-05-16T17:25:27.026Z,100454.03
2018-05-16T17:27:59.540Z,100457.17
2018-05-16T17:30:32.054Z,100455.47
2018-05-16T17:33:04.597Z,100450.98
2018-05-16T17:35:37.150Z,100461.19
2018-05-16T17:38:09.854Z,100463.14
2018-05-16T17:40:42.419Z,100469.03
2018-05-16T17:43:14.994Z,100467.53
2018-05-16T17:45:47.546Z,100470.54
2018-05-16T17:48:20.071Z,100471.95
2018-05-16T17:50:52.573Z,100469.07
2018-05-16T17:53:25.101Z,100468.46
2018-05-16T17:55:57.616Z,100474.61
2018-05-16T17:58:30.153Z,100475.16
2018-05-16T18:01:02.662Z,100474.16
2018-05-16T18:03:35.579Z,100479.45
2018-05-16T18:06:08.102Z,100478.10
2018-05-16T18:08:40.783Z,100485.64
2018-05-16T18:11:13.292Z,100482.80
2018-05-16T18:13:58.411Z,100483.82
2018-05-16T18:16:42.914Z,100484.36
2018-05-16T18:19:15.476Z,100483.69
2018-05-16T18:21:47.992Z,100486.77
2018-05-16T18:24:20.531Z,100486.95
2018-05-16T18:26:53.051Z,100480.48
2018-05-16T18:29:25.618Z,100484.87
2018-05-16T18:31:58.101Z,100495.31
2018-05-16T18:34:30.788Z,100489.86
2018-05-16T18:37:03.296Z,100492.12
2018-05-16T18:39:35.870Z,100487.44
2018-05-16T18:42:08.513Z,100493.62
2018-05-16T18:44:41.108Z,100494.08
2018-05-16T18:47:13.605Z,100491.98
2018-05-16T18:49:46.128Z,100493.88
2018-05-16T18:52:18.624Z,100505.00
2018-05-16T18:54:51.147Z,100509.48
2018-05-16T18:57:23.647Z,100507.05
2018-05-16T18:59:56.185Z,100517.91
2018-05-16T19:02:28.683Z,100513.02
2018-05-16T19:05:01.209Z,100521.34
2018-05-16T19:07:33.717Z,100520.39
2018-05-16T19:10:06.293Z,100524.93
2018-05-16T19:12:38.861Z,100519.09
2018-05-16T19:15:11.586Z,100527.28
2018-05-16T19:17:44.212Z,100537.16
2018-05-16T19:20:16.709Z,100538.33
2018-05-16T19:22:49.237Z,100537.58
2018-05-16T19:25:21.737Z,100537.31
2018-05-16T19:27:54.271Z,100544.20
2018-05-16T19:30:26.772Z,100548.77
2018-05-16T19:32:59.380Z,100556.59
2018-05-16T19:35:31.832Z,100551.61
2018-05-16T19:38:04.414Z,100552.92
2018-05-16T19:40:37.361Z,100557.22
2018-05-16T19:43:10.273Z,100555.72
2018-05-16T19:45:42.776Z,100559.89
2018-05-16T19:48:15.316Z,100564.59
2018-05-16T19:50:47.824Z,100568.91
2018-05-16T19:53:20.349Z,100572.90
2018-05-16T19:55:52.857Z,100569.91
2018-05-16T19:58:25.378Z,100573.52
2018-05-16T20:00:57.883Z,100572.00
2018-05-16T20:03:30.451Z,100573.42
2018-05-16T20:06:02.957Z,100578.77
2018-05-16T20:08:35.764Z,100581.42
2018-05-16T20:11:08.474Z,100587.55
2018-05-16T20:13:41.493Z,100585.00
2018-05-16T20:16:14.005Z,100581.39
2018-05-16T20:18:46.521Z,100582.59
2018-05-16T20:21:19.020Z,100587.22
2018-05-16T20:23:51.641Z,100584.73
2018-05-16T20:26:24.069Z,100591.72
2018-05-16T20:28:56.593Z,100596.97
2018-05-16T20:31:29.100Z,100597.53
2018-05-16T20:34:01.628Z,100592.85
2018-05-16T20:36:34.130Z,100590.98
2018-05-16T20:39:06.718Z,100585.17
2018-05-16T20:41:39.432Z,100588.70
2018-05-16T20:44:12.135Z,100594.72
2018-05-16T20:46:44.650Z,100600.39
2018-05-16T20:49:17.173Z,100603.34
2018-05-16T20:51:49.684Z,100600.70
2018-05-16T20:54:22.203Z,100602.78
2018-05-16T20:56:54.700Z,100604.79
2018-05-16T20:59:27.227Z,100607.44
2018-05-16T21:01:59.727Z,100607.26
2018-05-16T21:04:33.008Z,100610.06
2018-05-16T21:07:05.563Z,100618.86
2018-05-16T21:09:38.105Z,100620.75
2018-05-16T21:12:10.690Z,100625.39
2018-05-16T21:14:43.166Z,100617.27
2018-05-16T21:17:15.675Z,100622.72
2018-05-16T21:19:48.214Z,100631.50
2018-05-16T21:22:20.725Z,100634.27
2018-05-16T21:24:53.256Z,100624.88
2018-05-16T21:27:25.766Z,100631.86
2018-05-16T21:29:58.289Z,100634.68
2018-05-16T21:32:30.806Z,100629.94
2018-05-16T21:35:03.331Z,100637.25
2018-05-16T21:37:35.836Z,100632.06
2018-05-16T21:40:08.364Z,100640.20
2018-05-16T21:42:40.909Z,100632.85
2018-05-16T21:45:13.434Z,100634.58
2018-05-16T21:47:45.937Z,100637.16
2018-05-16T21:50:18.467Z,100636.69
2018-05-16T21:52:50.973Z,100636.09
2018-05-16T21:55:23.502Z,100640.47
2018-05-16T21:57:55.997Z,100632.77
2018-05-16T22:00:28.526Z,100641.78
2018-05-16T22:03:01.032Z,100641.23
2018-05-16T22:05:33.557Z,100649.88
2018-05-16T22:08:06.071Z,100637.04
2018-05-16T22:10:39.380Z,100643.73
2018-05-16T22:13:11.882Z,100649.58
2018-05-16T22:15:44.410Z,100643.24
2018-05-16T22:18:16.927Z,100649.70
2018-05-16T22:20:49.449Z,100660.14
2018-05-16T22:23:21.959Z,100659.06
2018-05-16T22:25:54.485Z,100654.44
2018-05-16T22:28:26.995Z,100657.29
2018-05-16T22:31:05.362Z,100660.64
2018-05-16T22:33:43.471Z,100656.22
2018-05-16T22:36:21.690Z,100653.50
2018-05-16T22:38:59.902Z,100648.48
2018-05-16T22:41:38.232Z,100650.59
2018-05-16T22:44:16.915Z,100646.00
2018-05-16T22:46:49.476Z,100651.92
2018-05-16T22:49:22.067Z,100652.80
2018-05-16T22:51:54.616Z,100656.12
2018-05-16T22:54:27.205Z,100651.88
2018-05-16T22:56:59.713Z,100651.55
2018-05-16T22:59:32.235Z,100655.98
2018-05-16T23:02:04.762Z,100660.64
2018-05-16T23:04:37.964Z,100666.00
2018-05-16T23:07:10.826Z,100659.54
2018-05-16T23:09:43.421Z,100658.06
2018-05-16T23:12:16.084Z,100661.66
2018-05-16T23:14:48.612Z,100665.08
2018-05-16T23:17:21.137Z,100665.53
2018-05-16T23:19:53.679Z,100663.69
2018-05-16T23:22:26.196Z,100661.66
2018-05-16T23:24:58.730Z,100664.33
2018-05-16T23:27:31.248Z,100663.69
2018-05-16T23:30:03.768Z,100670.68
2018-05-16T23:32:36.475Z,100672.56
2018-05-16T23:35:09.265Z,100677.03
2018-05-16T23:37:41.776Z,100675.58
2018-05-16T23:40:14.447Z,100677.37
2018-05-16T23:42:47.361Z,100674.87
2018-05-16T23:45:19.897Z,100679.59
2018-05-16T23:47:52.405Z,100680.87
2018-05-16T23:50:24.935Z,100679.00
2018-05-16T23:52:57.510Z,100681.22
2018-05-16T23:55:30.082Z,100677.81
2018-05-16T23:58:02.590Z,100679.19
